sensor_id;sensor_type;location;lat;lon;timestamp;P1;durP1;ratioP1;P2;durP2;ratioP2
5801;SDS011;2927;49.366;8.530;2023-03-19T00:02:00;13.33;;;5.80;;
5801;SDS011;2927;49.366;8.530;2023-03-19T00:04:26;13.97;;;5.60;;
5801;SDS011;2927;49.366;8.530;2023-03-19T00:06:52;11.30;;;5.93;;
5801;SDS011;2927;49.366;8.530;2023-03-19T00:09:18;9.13;;;5.53;;
5801;SDS011;2927;49.366;8.530;2023-03-19T00:11:44;11.50;;;6.70;;
5801;SDS011;2927;49.366;8.530;2023-03-19T00:14:10;14.73;;;6.50;;
5801;SDS011;2927;49.366;8.530;2023-03-19T00:16:36;14.90;;;6.67;;
5801;SDS011;2927;49.366;8.530;2023-03-19T00:19:02;8.27;;;6.07;;
5801;SDS011;2927;49.366;8.530;2023-03-19T00:21:28;18.43;;;7.47;;
5801;SDS011;2927;49.366;8.530;2023-03-19T00:23:54;8.50;;;4.93;;
5801;SDS011;2927;49.366;8.530;2023-03-19T00:26:25;16.93;;;10.70;;
5801;SDS011;2927;49.366;8.530;2023-03-19T00:28:51;11.20;;;6.90;;
5801;SDS011;2927;49.366;8.530;2023-03-19T00:31:16;13.60;;;5.67;;
5801;SDS011;2927;49.366;8.530;2023-03-19T00:33:42;7.70;;;5.80;;
5801;SDS011;2927;49.366;8.530;2023-03-19T00:36:08;8.33;;;4.30;;
5801;SDS011;2927;49.366;8.530;2023-03-19T00:38:35;13.67;;;4.23;;
5801;SDS011;2927;49.366;8.530;2023-03-19T00:41:01;7.77;;;4.30;;
5801;SDS011;2927;49.366;8.530;2023-03-19T00:43:27;10.83;;;4.57;;
5801;SDS011;2927;49.366;8.530;2023-03-19T00:45:53;8.10;;;4.00;;
5801;SDS011;2927;49.366;8.530;2023-03-19T00:48:19;9.70;;;4.50;;
5801;SDS011;2927;49.366;8.530;2023-03-19T00:50:45;13.00;;;5.23;;
5801;SDS011;2927;49.366;8.530;2023-03-19T00:53:14;10.93;;;4.60;;
5801;SDS011;2927;49.366;8.530;2023-03-19T00:55:40;10.30;;;4.20;;
5801;SDS011;2927;49.366;8.530;2023-03-19T00:58:05;8.20;;;4.30;;
5801;SDS011;2927;49.366;8.530;2023-03-19T01:00:32;9.30;;;4.80;;
5801;SDS011;2927;49.366;8.530;2023-03-19T01:02:58;11.70;;;4.60;;
5801;SDS011;2927;49.366;8.530;2023-03-19T01:05:24;7.53;;;4.83;;
5801;SDS011;2927;49.366;8.530;2023-03-19T01:07:51;7.20;;;4.20;;
5801;SDS011;2927;49.366;8.530;2023-03-19T01:10:17;9.20;;;4.73;;
5801;SDS011;2927;49.366;8.530;2023-03-19T01:12:43;8.30;;;3.93;;
5801;SDS011;2927;49.366;8.530;2023-03-19T01:15:09;14.93;;;5.67;;
5801;SDS011;2927;49.366;8.530;2023-03-19T01:17:35;9.60;;;4.90;;
5801;SDS011;2927;49.366;8.530;2023-03-19T01:20:01;6.83;;;3.90;;
5801;SDS011;2927;49.366;8.530;2023-03-19T01:22:27;10.67;;;4.20;;
5801;SDS011;2927;49.366;8.530;2023-03-19T01:24:53;9.10;;;5.13;;
5801;SDS011;2927;49.366;8.530;2023-03-19T01:27:19;14.20;;;5.37;;
5801;SDS011;2927;49.366;8.530;2023-03-19T01:29:45;6.90;;;4.20;;
5801;SDS011;2927;49.366;8.530;2023-03-19T01:32:10;7.80;;;4.87;;
5801;SDS011;2927;49.366;8.530;2023-03-19T01:34:36;7.00;;;4.50;;
5801;SDS011;2927;49.366;8.530;2023-03-19T01:37:02;8.87;;;5.40;;
5801;SDS011;2927;49.366;8.530;2023-03-19T01:39:27;16.83;;;6.10;;
5801;SDS011;2927;49.366;8.530;2023-03-19T01:41:53;8.03;;;5.40;;
5801;SDS011;2927;49.366;8.530;2023-03-19T01:44:22;10.83;;;5.00;;
5801;SDS011;2927;49.366;8.530;2023-03-19T01:47:03;8.60;;;5.70;;
5801;SDS011;2927;49.366;8.530;2023-03-19T01:49:31;11.40;;;6.00;;
5801;SDS011;2927;49.366;8.530;2023-03-19T01:51:58;6.50;;;5.10;;
5801;SDS011;2927;49.366;8.530;2023-03-19T01:54:26;6.70;;;5.33;;
5801;SDS011;2927;49.366;8.530;2023-03-19T01:56:57;9.60;;;5.30;;
5801;SDS011;2927;49.366;8.530;2023-03-19T01:59:36;10.80;;;5.47;;
5801;SDS011;2927;49.366;8.530;2023-03-19T02:02:05;14.70;;;6.00;;
5801;SDS011;2927;49.366;8.530;2023-03-19T02:04:45;9.20;;;5.13;;
5801;SDS011;2927;49.366;8.530;2023-03-19T02:07:15;9.87;;;4.80;;
5801;SDS011;2927;49.366;8.530;2023-03-19T02:09:41;6.80;;;5.23;;
5801;SDS011;2927;49.366;8.530;2023-03-19T02:12:07;13.97;;;6.10;;
5801;SDS011;2927;49.366;8.530;2023-03-19T02:14:34;8.40;;;4.83;;
5801;SDS011;2927;49.366;8.530;2023-03-19T02:16:59;9.70;;;4.70;;
5801;SDS011;2927;49.366;8.530;2023-03-19T02:19:37;14.00;;;4.97;;
5801;SDS011;2927;49.366;8.530;2023-03-19T02:22:04;9.80;;;4.83;;
5801;SDS011;2927;49.366;8.530;2023-03-19T02:24:50;11.00;;;5.10;;
5801;SDS011;2927;49.366;8.530;2023-03-19T02:27:20;7.97;;;4.50;;
5801;SDS011;2927;49.366;8.530;2023-03-19T02:29:46;11.13;;;4.87;;
5801;SDS011;2927;49.366;8.530;2023-03-19T02:32:11;11.50;;;4.93;;
5801;SDS011;2927;49.366;8.530;2023-03-19T02:34:38;8.70;;;4.97;;
5801;SDS011;2927;49.366;8.530;2023-03-19T02:37:08;7.93;;;4.40;;
5801;SDS011;2927;49.366;8.530;2023-03-19T02:42:28;18.77;;;5.50;;
5801;SDS011;2927;49.366;8.530;2023-03-19T02:44:54;6.77;;;4.57;;
5801;SDS011;2927;49.366;8.530;2023-03-19T02:47:20;8.63;;;4.80;;
5801;SDS011;2927;49.366;8.530;2023-03-19T02:49:46;8.73;;;4.73;;
5801;SDS011;2927;49.366;8.530;2023-03-19T02:52:11;9.37;;;4.40;;
5801;SDS011;2927;49.366;8.530;2023-03-19T02:54:37;10.13;;;5.67;;
5801;SDS011;2927;49.366;8.530;2023-03-19T02:57:02;7.17;;;4.33;;
5801;SDS011;2927;49.366;8.530;2023-03-19T02:59:28;7.40;;;5.23;;
5801;SDS011;2927;49.366;8.530;2023-03-19T03:01:53;14.07;;;4.93;;
5801;SDS011;2927;49.366;8.530;2023-03-19T03:04:19;14.93;;;4.73;;
5801;SDS011;2927;49.366;8.530;2023-03-19T03:06:45;9.70;;;5.10;;
5801;SDS011;2927;49.366;8.530;2023-03-19T03:09:11;11.27;;;4.87;;
5801;SDS011;2927;49.366;8.530;2023-03-19T03:11:37;6.43;;;3.83;;
5801;SDS011;2927;49.366;8.530;2023-03-19T03:14:05;5.80;;;4.50;;
5801;SDS011;2927;49.366;8.530;2023-03-19T03:16:30;5.50;;;4.40;;
5801;SDS011;2927;49.366;8.530;2023-03-19T03:18:56;8.03;;;5.27;;
5801;SDS011;2927;49.366;8.530;2023-03-19T03:21:22;6.30;;;4.60;;
5801;SDS011;2927;49.366;8.530;2023-03-19T03:23:48;11.07;;;4.83;;
5801;SDS011;2927;49.366;8.530;2023-03-19T03:26:13;9.47;;;5.17;;
5801;SDS011;2927;49.366;8.530;2023-03-19T03:28:39;14.87;;;4.70;;
5801;SDS011;2927;49.366;8.530;2023-03-19T03:31:05;5.87;;;4.17;;
5801;SDS011;2927;49.366;8.530;2023-03-19T03:33:30;9.67;;;4.87;;
5801;SDS011;2927;49.366;8.530;2023-03-19T03:35:56;12.80;;;5.00;;
5801;SDS011;2927;49.366;8.530;2023-03-19T03:38:22;15.87;;;5.03;;
5801;SDS011;2927;49.366;8.530;2023-03-19T03:40:51;8.03;;;4.20;;
5801;SDS011;2927;49.366;8.530;2023-03-19T03:43:17;12.00;;;4.57;;
5801;SDS011;2927;49.366;8.530;2023-03-19T03:45:45;9.37;;;4.70;;
5801;SDS011;2927;49.366;8.530;2023-03-19T03:48:11;6.47;;;4.67;;
5801;SDS011;2927;49.366;8.530;2023-03-19T03:50:37;11.03;;;5.47;;
5801;SDS011;2927;49.366;8.530;2023-03-19T03:53:03;9.73;;;5.37;;
5801;SDS011;2927;49.366;8.530;2023-03-19T03:55:29;7.00;;;4.50;;
5801;SDS011;2927;49.366;8.530;2023-03-19T03:57:55;6.10;;;4.40;;
5801;SDS011;2927;49.366;8.530;2023-03-19T04:00:21;10.40;;;4.63;;
5801;SDS011;2927;49.366;8.530;2023-03-19T04:02:48;9.73;;;4.57;;
5801;SDS011;2927;49.366;8.530;2023-03-19T04:05:13;8.00;;;4.47;;
5801;SDS011;2927;49.366;8.530;2023-03-19T04:07:39;8.03;;;4.33;;
5801;SDS011;2927;49.366;8.530;2023-03-19T04:10:05;8.80;;;4.33;;
5801;SDS011;2927;49.366;8.530;2023-03-19T04:12:31;11.30;;;4.90;;
5801;SDS011;2927;49.366;8.530;2023-03-19T04:14:57;5.90;;;3.80;;
5801;SDS011;2927;49.366;8.530;2023-03-19T04:17:22;6.80;;;4.37;;
5801;SDS011;2927;49.366;8.530;2023-03-19T04:19:48;5.73;;;3.90;;
5801;SDS011;2927;49.366;8.530;2023-03-19T04:22:14;15.03;;;5.53;;
5801;SDS011;2927;49.366;8.530;2023-03-19T04:24:40;10.63;;;5.10;;
5801;SDS011;2927;49.366;8.530;2023-03-19T04:27:05;9.93;;;4.87;;
5801;SDS011;2927;49.366;8.530;2023-03-19T04:29:31;6.80;;;3.80;;
5801;SDS011;2927;49.366;8.530;2023-03-19T04:31:57;10.00;;;4.43;;
5801;SDS011;2927;49.366;8.530;2023-03-19T04:34:22;15.23;;;4.43;;
5801;SDS011;2927;49.366;8.530;2023-03-19T04:36:48;8.43;;;4.50;;
5801;SDS011;2927;49.366;8.530;2023-03-19T04:39:15;7.57;;;4.40;;
5801;SDS011;2927;49.366;8.530;2023-03-19T04:41:42;7.93;;;4.70;;
5801;SDS011;2927;49.366;8.530;2023-03-19T04:44:08;12.03;;;4.27;;
5801;SDS011;2927;49.366;8.530;2023-03-19T04:46:33;8.00;;;4.43;;
5801;SDS011;2927;49.366;8.530;2023-03-19T04:48:59;9.33;;;3.90;;
5801;SDS011;2927;49.366;8.530;2023-03-19T04:51:25;7.80;;;4.20;;
5801;SDS011;2927;49.366;8.530;2023-03-19T04:53:51;6.43;;;3.50;;
5801;SDS011;2927;49.366;8.530;2023-03-19T04:56:17;10.03;;;4.73;;
5801;SDS011;2927;49.366;8.530;2023-03-19T04:58:43;9.73;;;4.43;;
5801;SDS011;2927;49.366;8.530;2023-03-19T05:01:09;7.87;;;4.57;;
5801;SDS011;2927;49.366;8.530;2023-03-19T05:03:35;7.03;;;3.83;;
5801;SDS011;2927;49.366;8.530;2023-03-19T05:06:00;11.30;;;4.37;;
5801;SDS011;2927;49.366;8.530;2023-03-19T05:08:26;11.93;;;4.20;;
5801;SDS011;2927;49.366;8.530;2023-03-19T05:10:51;6.40;;;4.03;;
5801;SDS011;2927;49.366;8.530;2023-03-19T05:13:17;6.17;;;3.93;;
5801;SDS011;2927;49.366;8.530;2023-03-19T05:15:43;10.73;;;4.10;;
5801;SDS011;2927;49.366;8.530;2023-03-19T05:18:09;8.93;;;4.57;;
5801;SDS011;2927;49.366;8.530;2023-03-19T05:20:36;11.77;;;4.87;;
5801;SDS011;2927;49.366;8.530;2023-03-19T05:23:02;13.17;;;5.20;;
5801;SDS011;2927;49.366;8.530;2023-03-19T05:25:28;6.87;;;4.77;;
5801;SDS011;2927;49.366;8.530;2023-03-19T05:27:54;13.40;;;4.53;;
5801;SDS011;2927;49.366;8.530;2023-03-19T05:30:20;7.17;;;5.23;;
5801;SDS011;2927;49.366;8.530;2023-03-19T05:32:45;7.23;;;4.97;;
5801;SDS011;2927;49.366;8.530;2023-03-19T05:35:11;9.50;;;5.33;;
5801;SDS011;2927;49.366;8.530;2023-03-19T05:37:38;14.60;;;5.33;;
5801;SDS011;2927;49.366;8.530;2023-03-19T05:40:04;19.27;;;10.57;;
5801;SDS011;2927;49.366;8.530;2023-03-19T05:42:30;9.60;;;6.80;;
5801;SDS011;2927;49.366;8.530;2023-03-19T05:44:56;9.50;;;7.00;;
5801;SDS011;2927;49.366;8.530;2023-03-19T05:47:21;10.87;;;6.87;;
5801;SDS011;2927;49.366;8.530;2023-03-19T05:49:47;6.80;;;5.17;;
5801;SDS011;2927;49.366;8.530;2023-03-19T05:52:13;13.13;;;5.50;;
5801;SDS011;2927;49.366;8.530;2023-03-19T05:54:38;7.83;;;5.00;;
5801;SDS011;2927;49.366;8.530;2023-03-19T05:57:05;12.03;;;5.80;;
5801;SDS011;2927;49.366;8.530;2023-03-19T05:59:31;8.10;;;4.60;;
5801;SDS011;2927;49.366;8.530;2023-03-19T06:01:57;7.87;;;4.90;;
5801;SDS011;2927;49.366;8.530;2023-03-19T06:04:23;6.63;;;3.80;;
5801;SDS011;2927;49.366;8.530;2023-03-19T06:06:49;8.60;;;4.43;;
5801;SDS011;2927;49.366;8.530;2023-03-19T06:09:15;8.53;;;3.93;;
5801;SDS011;2927;49.366;8.530;2023-03-19T06:11:41;8.43;;;4.13;;
5801;SDS011;2927;49.366;8.530;2023-03-19T06:14:07;5.40;;;3.63;;
5801;SDS011;2927;49.366;8.530;2023-03-19T06:16:32;6.33;;;3.77;;
5801;SDS011;2927;49.366;8.530;2023-03-19T06:18:58;5.73;;;3.80;;
5801;SDS011;2927;49.366;8.530;2023-03-19T06:21:24;7.80;;;3.80;;
5801;SDS011;2927;49.366;8.530;2023-03-19T06:23:54;4.47;;;3.40;;
5801;SDS011;2927;49.366;8.530;2023-03-19T06:26:20;5.43;;;4.10;;
5801;SDS011;2927;49.366;8.530;2023-03-19T06:28:46;7.43;;;4.03;;
5801;SDS011;2927;49.366;8.530;2023-03-19T06:31:12;6.50;;;4.57;;
5801;SDS011;2927;49.366;8.530;2023-03-19T06:33:37;7.30;;;3.70;;
5801;SDS011;2927;49.366;8.530;2023-03-19T06:36:03;5.77;;;3.70;;
5801;SDS011;2927;49.366;8.530;2023-03-19T06:38:29;7.63;;;3.47;;
5801;SDS011;2927;49.366;8.530;2023-03-19T06:40:55;6.80;;;3.57;;
5801;SDS011;2927;49.366;8.530;2023-03-19T06:43:20;6.77;;;3.70;;
5801;SDS011;2927;49.366;8.530;2023-03-19T06:45:46;6.70;;;3.20;;
5801;SDS011;2927;49.366;8.530;2023-03-19T06:48:12;6.40;;;3.40;;
5801;SDS011;2927;49.366;8.530;2023-03-19T06:50:37;4.40;;;3.27;;
5801;SDS011;2927;49.366;8.530;2023-03-19T06:53:03;4.90;;;3.37;;
5801;SDS011;2927;49.366;8.530;2023-03-19T06:55:28;4.00;;;3.03;;
5801;SDS011;2927;49.366;8.530;2023-03-19T06:57:55;4.50;;;3.07;;
5801;SDS011;2927;49.366;8.530;2023-03-19T07:00:20;6.03;;;2.90;;
5801;SDS011;2927;49.366;8.530;2023-03-19T07:02:46;5.50;;;3.03;;
5801;SDS011;2927;49.366;8.530;2023-03-19T07:05:12;5.40;;;3.27;;
5801;SDS011;2927;49.366;8.530;2023-03-19T07:07:37;9.40;;;3.13;;
5801;SDS011;2927;49.366;8.530;2023-03-19T07:10:03;4.43;;;2.73;;
5801;SDS011;2927;49.366;8.530;2023-03-19T07:12:30;10.77;;;3.40;;
5801;SDS011;2927;49.366;8.530;2023-03-19T07:14:56;6.33;;;2.80;;
5801;SDS011;2927;49.366;8.530;2023-03-19T07:17:22;4.63;;;2.87;;
5801;SDS011;2927;49.366;8.530;2023-03-19T07:19:48;9.53;;;3.00;;
5801;SDS011;2927;49.366;8.530;2023-03-19T07:22:13;4.53;;;2.73;;
5801;SDS011;2927;49.366;8.530;2023-03-19T07:24:40;5.43;;;3.20;;
5801;SDS011;2927;49.366;8.530;2023-03-19T07:27:05;5.70;;;3.23;;
5801;SDS011;2927;49.366;8.530;2023-03-19T07:29:31;2.83;;;2.27;;
5801;SDS011;2927;49.366;8.530;2023-03-19T07:31:57;7.33;;;3.23;;
5801;SDS011;2927;49.366;8.530;2023-03-19T07:34:22;5.97;;;3.43;;
5801;SDS011;2927;49.366;8.530;2023-03-19T07:36:48;10.73;;;3.47;;
5801;SDS011;2927;49.366;8.530;2023-03-19T07:39:13;5.00;;;3.57;;
5801;SDS011;2927;49.366;8.530;2023-03-19T07:41:39;9.57;;;3.00;;
5801;SDS011;2927;49.366;8.530;2023-03-19T07:44:05;5.37;;;2.80;;
5801;SDS011;2927;49.366;8.530;2023-03-19T07:46:30;4.33;;;2.50;;
5801;SDS011;2927;49.366;8.530;2023-03-19T07:48:56;9.50;;;3.83;;
5801;SDS011;2927;49.366;8.530;2023-03-19T07:51:21;5.50;;;2.60;;
5801;SDS011;2927;49.366;8.530;2023-03-19T07:53:47;3.33;;;2.30;;
5801;SDS011;2927;49.366;8.530;2023-03-19T07:56:13;9.97;;;3.30;;
5801;SDS011;2927;49.366;8.530;2023-03-19T07:58:38;4.60;;;2.90;;
5801;SDS011;2927;49.366;8.530;2023-03-19T08:01:04;4.90;;;2.13;;
5801;SDS011;2927;49.366;8.530;2023-03-19T08:03:31;8.93;;;2.63;;
5801;SDS011;2927;49.366;8.530;2023-03-19T08:05:57;5.03;;;2.93;;
5801;SDS011;2927;49.366;8.530;2023-03-19T08:08:23;6.80;;;3.27;;
5801;SDS011;2927;49.366;8.530;2023-03-19T08:10:48;4.67;;;3.13;;
5801;SDS011;2927;49.366;8.530;2023-03-19T08:13:14;6.20;;;3.37;;
5801;SDS011;2927;49.366;8.530;2023-03-19T08:15:40;7.40;;;3.83;;
5801;SDS011;2927;49.366;8.530;2023-03-19T08:18:06;7.93;;;3.80;;
5801;SDS011;2927;49.366;8.530;2023-03-19T08:20:32;4.53;;;3.53;;
5801;SDS011;2927;49.366;8.530;2023-03-19T08:22:57;6.43;;;3.30;;
5801;SDS011;2927;49.366;8.530;2023-03-19T08:25:23;5.30;;;4.00;;
5801;SDS011;2927;49.366;8.530;2023-03-19T08:27:50;5.60;;;3.87;;
5801;SDS011;2927;49.366;8.530;2023-03-19T08:30:15;4.93;;;3.80;;
5801;SDS011;2927;49.366;8.530;2023-03-19T08:32:41;4.80;;;3.60;;
5801;SDS011;2927;49.366;8.530;2023-03-19T08:35:08;10.73;;;3.90;;
5801;SDS011;2927;49.366;8.530;2023-03-19T08:37:35;4.70;;;3.47;;
5801;SDS011;2927;49.366;8.530;2023-03-19T08:40:01;5.97;;;3.57;;
5801;SDS011;2927;49.366;8.530;2023-03-19T08:42:27;7.70;;;3.40;;
5801;SDS011;2927;49.366;8.530;2023-03-19T08:44:53;4.53;;;3.30;;
5801;SDS011;2927;49.366;8.530;2023-03-19T08:47:18;5.67;;;3.87;;
5801;SDS011;2927;49.366;8.530;2023-03-19T08:49:48;7.37;;;3.70;;
5801;SDS011;2927;49.366;8.530;2023-03-19T08:52:14;7.30;;;3.67;;
5801;SDS011;2927;49.366;8.530;2023-03-19T08:54:40;7.17;;;3.53;;
5801;SDS011;2927;49.366;8.530;2023-03-19T08:57:05;8.40;;;3.90;;
5801;SDS011;2927;49.366;8.530;2023-03-19T08:59:31;6.37;;;3.27;;
5801;SDS011;2927;49.366;8.530;2023-03-19T09:01:56;4.33;;;3.50;;
5801;SDS011;2927;49.366;8.530;2023-03-19T09:04:22;8.53;;;3.70;;
5801;SDS011;2927;49.366;8.530;2023-03-19T09:06:48;4.83;;;4.20;;
5801;SDS011;2927;49.366;8.530;2023-03-19T09:09:15;6.07;;;3.97;;
5801;SDS011;2927;49.366;8.530;2023-03-19T09:11:45;6.73;;;3.43;;
5801;SDS011;2927;49.366;8.530;2023-03-19T09:14:11;6.97;;;3.93;;
5801;SDS011;2927;49.366;8.530;2023-03-19T09:16:37;5.87;;;3.37;;
5801;SDS011;2927;49.366;8.530;2023-03-19T09:19:03;6.97;;;2.83;;
5801;SDS011;2927;49.366;8.530;2023-03-19T09:21:29;6.40;;;2.47;;
5801;SDS011;2927;49.366;8.530;2023-03-19T09:23:54;3.10;;;2.80;;
5801;SDS011;2927;49.366;8.530;2023-03-19T09:26:20;6.22;;;2.47;;
5801;SDS011;2927;49.366;8.530;2023-03-19T09:28:46;7.22;;;2.60;;
5801;SDS011;2927;49.366;8.530;2023-03-19T09:31:11;5.20;;;2.13;;
5801;SDS011;2927;49.366;8.530;2023-03-19T09:33:37;3.42;;;2.55;;
5801;SDS011;2927;49.366;8.530;2023-03-19T09:36:02;3.33;;;2.78;;
5801;SDS011;2927;49.366;8.530;2023-03-19T09:38:28;7.30;;;3.30;;
5801;SDS011;2927;49.366;8.530;2023-03-19T09:43:55;5.15;;;2.45;;
5801;SDS011;2927;49.366;8.530;2023-03-19T09:46:35;3.38;;;2.00;;
5801;SDS011;2927;49.366;8.530;2023-03-19T09:49:13;3.38;;;2.70;;
5801;SDS011;2927;49.366;8.530;2023-03-19T09:51:59;3.88;;;1.70;;
5801;SDS011;2927;49.366;8.530;2023-03-19T09:54:47;8.02;;;2.15;;
5801;SDS011;2927;49.366;8.530;2023-03-19T09:57:16;5.88;;;2.22;;
5801;SDS011;2927;49.366;8.530;2023-03-19T09:59:42;3.40;;;2.33;;
5801;SDS011;2927;49.366;8.530;2023-03-19T10:04:53;3.80;;;2.00;;
5801;SDS011;2927;49.366;8.530;2023-03-19T10:07:33;4.20;;;1.60;;
5801;SDS011;2927;49.366;8.530;2023-03-19T10:15:33;2.40;;;1.97;;
5801;SDS011;2927;49.366;8.530;2023-03-19T10:23:23;4.63;;;2.60;;
5801;SDS011;2927;49.366;8.530;2023-03-19T10:25:52;4.27;;;1.80;;
5801;SDS011;2927;49.366;8.530;2023-03-19T10:28:21;3.23;;;2.03;;
5801;SDS011;2927;49.366;8.530;2023-03-19T10:30:54;5.23;;;2.50;;
5801;SDS011;2927;49.366;8.530;2023-03-19T10:33:31;2.20;;;1.80;;
5801;SDS011;2927;49.366;8.530;2023-03-19T10:36:09;2.10;;;1.90;;
5801;SDS011;2927;49.366;8.530;2023-03-19T10:38:42;4.33;;;1.60;;
5801;SDS011;2927;49.366;8.530;2023-03-19T10:44:12;4.57;;;2.47;;
5801;SDS011;2927;49.366;8.530;2023-03-19T10:46:58;3.37;;;2.33;;
5801;SDS011;2927;49.366;8.530;2023-03-19T10:49:33;2.17;;;2.03;;
5801;SDS011;2927;49.366;8.530;2023-03-19T10:52:00;3.80;;;2.40;;
5801;SDS011;2927;49.366;8.530;2023-03-19T10:54:26;3.43;;;2.17;;
5801;SDS011;2927;49.366;8.530;2023-03-19T10:56:57;10.70;;;3.00;;
5801;SDS011;2927;49.366;8.530;2023-03-19T11:01:59;3.20;;;2.80;;
5801;SDS011;2927;49.366;8.530;2023-03-19T11:04:27;3.90;;;2.93;;
5801;SDS011;2927;49.366;8.530;2023-03-19T11:06:54;11.83;;;2.77;;
5801;SDS011;2927;49.366;8.530;2023-03-19T11:12:05;3.40;;;2.40;;
5801;SDS011;2927;49.366;8.530;2023-03-19T11:14:51;5.17;;;3.00;;
5801;SDS011;2927;49.366;8.530;2023-03-19T11:20:06;5.33;;;2.30;;
5801;SDS011;2927;49.366;8.530;2023-03-19T11:22:53;10.53;;;3.23;;
5801;SDS011;2927;49.366;8.530;2023-03-19T11:25:39;2.93;;;2.63;;
5801;SDS011;2927;49.366;8.530;2023-03-19T11:28:11;3.73;;;2.60;;
5801;SDS011;2927;49.366;8.530;2023-03-19T11:30:46;6.90;;;2.47;;
5801;SDS011;2927;49.366;8.530;2023-03-19T11:42:24;3.47;;;2.23;;
5801;SDS011;2927;49.366;8.530;2023-03-19T11:50:52;8.90;;;3.03;;
5801;SDS011;2927;49.366;8.530;2023-03-19T11:53:28;8.03;;;2.63;;
5801;SDS011;2927;49.366;8.530;2023-03-19T11:56:14;9.43;;;3.40;;
5801;SDS011;2927;49.366;8.530;2023-03-19T11:58:57;4.03;;;2.47;;
5801;SDS011;2927;49.366;8.530;2023-03-19T12:01:45;4.80;;;2.00;;
5801;SDS011;2927;49.366;8.530;2023-03-19T12:10:46;2.23;;;2.00;;
5801;SDS011;2927;49.366;8.530;2023-03-19T12:13:34;7.30;;;1.90;;
5801;SDS011;2927;49.366;8.530;2023-03-19T12:16:17;3.40;;;2.03;;
5801;SDS011;2927;49.366;8.530;2023-03-19T12:26:57;3.07;;;1.53;;
5801;SDS011;2927;49.366;8.530;2023-03-19T12:29:57;3.10;;;1.80;;
5801;SDS011;2927;49.366;8.530;2023-03-19T12:35:34;1.70;;;1.30;;
5801;SDS011;2927;49.366;8.530;2023-03-19T12:38:03;1.40;;;1.30;;
5801;SDS011;2927;49.366;8.530;2023-03-19T12:40:42;2.13;;;1.63;;
5801;SDS011;2927;49.366;8.530;2023-03-19T12:46:00;3.40;;;1.73;;
5801;SDS011;2927;49.366;8.530;2023-03-19T12:48:29;3.20;;;0.97;;
5801;SDS011;2927;49.366;8.530;2023-03-19T12:51:04;3.07;;;1.30;;
5801;SDS011;2927;49.366;8.530;2023-03-19T12:53:47;2.20;;;1.53;;
5801;SDS011;2927;49.366;8.530;2023-03-19T12:56:30;5.40;;;3.40;;
5801;SDS011;2927;49.366;8.530;2023-03-19T12:59:07;8.73;;;6.27;;
5801;SDS011;2927;49.366;8.530;2023-03-19T13:01:52;3.00;;;2.47;;
5801;SDS011;2927;49.366;8.530;2023-03-19T13:04:26;5.63;;;2.60;;
5801;SDS011;2927;49.366;8.530;2023-03-19T13:06:57;5.20;;;2.07;;
5801;SDS011;2927;49.366;8.530;2023-03-19T13:12:10;5.30;;;1.63;;
5801;SDS011;2927;49.366;8.530;2023-03-19T13:14:52;1.93;;;1.23;;
5801;SDS011;2927;49.366;8.530;2023-03-19T13:23:29;5.67;;;1.97;;
5801;SDS011;2927;49.366;8.530;2023-03-19T13:25:58;2.00;;;1.80;;
5801;SDS011;2927;49.366;8.530;2023-03-19T13:28:26;3.20;;;2.00;;
5801;SDS011;2927;49.366;8.530;2023-03-19T13:30:57;3.77;;;2.20;;
5801;SDS011;2927;49.366;8.530;2023-03-19T13:33:25;2.80;;;2.10;;
5801;SDS011;2927;49.366;8.530;2023-03-19T13:35:52;4.53;;;2.30;;
5801;SDS011;2927;49.366;8.530;2023-03-19T13:38:21;2.80;;;2.20;;
5801;SDS011;2927;49.366;8.530;2023-03-19T13:40:51;3.37;;;1.60;;
5801;SDS011;2927;49.366;8.530;2023-03-19T13:43:22;3.60;;;2.10;;
5801;SDS011;2927;49.366;8.530;2023-03-19T13:45:52;3.30;;;1.57;;
5801;SDS011;2927;49.366;8.530;2023-03-19T13:48:36;3.43;;;1.40;;
5801;SDS011;2927;49.366;8.530;2023-03-19T13:56:18;1.80;;;1.30;;
5801;SDS011;2927;49.366;8.530;2023-03-19T13:58:52;1.83;;;1.47;;
5801;SDS011;2927;49.366;8.530;2023-03-19T14:01:39;1.60;;;1.07;;
5801;SDS011;2927;49.366;8.530;2023-03-19T14:04:16;1.10;;;1.00;;
5801;SDS011;2927;49.366;8.530;2023-03-19T14:09:38;4.27;;;1.90;;
5801;SDS011;2927;49.366;8.530;2023-03-19T14:12:08;10.00;;;2.00;;
5801;SDS011;2927;49.366;8.530;2023-03-19T14:14:44;4.73;;;1.97;;
5801;SDS011;2927;49.366;8.530;2023-03-19T14:17:30;2.17;;;2.07;;
5801;SDS011;2927;49.366;8.530;2023-03-19T14:25:52;5.83;;;4.40;;
5801;SDS011;2927;49.366;8.530;2023-03-19T14:28:21;5.50;;;2.80;;
5801;SDS011;2927;49.366;8.530;2023-03-19T14:33:59;2.30;;;2.00;;
5801;SDS011;2927;49.366;8.530;2023-03-19T14:36:28;3.90;;;2.13;;
5801;SDS011;2927;49.366;8.530;2023-03-19T14:38:59;3.60;;;2.03;;
5801;SDS011;2927;49.366;8.530;2023-03-19T14:41:29;7.80;;;5.40;;
5801;SDS011;2927;49.366;8.530;2023-03-19T14:47:03;8.27;;;4.37;;
5801;SDS011;2927;49.366;8.530;2023-03-19T14:52:43;2.50;;;2.27;;
5801;SDS011;2927;49.366;8.530;2023-03-19T14:55:16;2.40;;;1.70;;
5801;SDS011;2927;49.366;8.530;2023-03-19T14:57:41;19.70;;;9.33;;
5801;SDS011;2927;49.366;8.530;2023-03-19T15:00:17;20.80;;;10.40;;
5801;SDS011;2927;49.366;8.530;2023-03-19T15:02:45;29.97;;;11.50;;
5801;SDS011;2927;49.366;8.530;2023-03-19T15:05:14;10.67;;;5.20;;
5801;SDS011;2927;49.366;8.530;2023-03-19T15:07:48;4.37;;;2.23;;
5801;SDS011;2927;49.366;8.530;2023-03-19T15:10:18;4.00;;;2.07;;
5801;SDS011;2927;49.366;8.530;2023-03-19T15:13:06;1.17;;;1.17;;
5801;SDS011;2927;49.366;8.530;2023-03-19T15:18:29;2.13;;;1.27;;
5801;SDS011;2927;49.366;8.530;2023-03-19T15:20:55;3.07;;;1.43;;
5801;SDS011;2927;49.366;8.530;2023-03-19T15:23:23;2.70;;;1.27;;
5801;SDS011;2927;49.366;8.530;2023-03-19T15:25:52;0.90;;;0.80;;
5801;SDS011;2927;49.366;8.530;2023-03-19T15:28:22;2.00;;;1.43;;
5801;SDS011;2927;49.366;8.530;2023-03-19T15:31:00;2.73;;;0.90;;
5801;SDS011;2927;49.366;8.530;2023-03-19T15:33:34;0.93;;;0.80;;
5801;SDS011;2927;49.366;8.530;2023-03-19T15:36:08;0.83;;;0.70;;
5801;SDS011;2927;49.366;8.530;2023-03-19T15:38:56;1.83;;;0.97;;
5801;SDS011;2927;49.366;8.530;2023-03-19T15:41:32;1.60;;;1.43;;
5801;SDS011;2927;49.366;8.530;2023-03-19T15:44:04;5.27;;;0.90;;
5801;SDS011;2927;49.366;8.530;2023-03-19T15:46:36;1.60;;;0.80;;
5801;SDS011;2927;49.366;8.530;2023-03-19T15:49:09;1.13;;;0.93;;
5801;SDS011;2927;49.366;8.530;2023-03-19T15:51:50;1.10;;;1.00;;
5801;SDS011;2927;49.366;8.530;2023-03-19T15:54:19;2.00;;;1.00;;
5801;SDS011;2927;49.366;8.530;2023-03-19T15:56:46;1.67;;;0.90;;
5801;SDS011;2927;49.366;8.530;2023-03-19T15:59:15;1.23;;;1.00;;
5801;SDS011;2927;49.366;8.530;2023-03-19T16:01:42;1.60;;;1.30;;
5801;SDS011;2927;49.366;8.530;2023-03-19T16:04:13;1.83;;;1.13;;
5801;SDS011;2927;49.366;8.530;2023-03-19T16:06:45;1.30;;;1.20;;
5801;SDS011;2927;49.366;8.530;2023-03-19T16:11:38;1.07;;;0.87;;
5801;SDS011;2927;49.366;8.530;2023-03-19T16:14:10;1.20;;;1.13;;
5801;SDS011;2927;49.366;8.530;2023-03-19T16:16:38;1.30;;;0.63;;
5801;SDS011;2927;49.366;8.530;2023-03-19T16:19:05;1.07;;;0.57;;
5801;SDS011;2927;49.366;8.530;2023-03-19T16:21:50;2.30;;;0.63;;
5801;SDS011;2927;49.366;8.530;2023-03-19T16:24:35;0.90;;;0.83;;
5801;SDS011;2927;49.366;8.530;2023-03-19T16:27:03;0.63;;;0.50;;
5801;SDS011;2927;49.366;8.530;2023-03-19T16:34:49;3.00;;;2.10;;
5801;SDS011;2927;49.366;8.530;2023-03-19T16:37:22;1.60;;;1.50;;
5801;SDS011;2927;49.366;8.530;2023-03-19T16:39:56;1.10;;;1.00;;
5801;SDS011;2927;49.366;8.530;2023-03-19T16:47:39;2.30;;;0.60;;
5801;SDS011;2927;49.366;8.530;2023-03-19T16:50:05;2.53;;;0.80;;
5801;SDS011;2927;49.366;8.530;2023-03-19T16:52:31;1.50;;;0.57;;
5801;SDS011;2927;49.366;8.530;2023-03-19T16:54:58;0.60;;;0.60;;
5801;SDS011;2927;49.366;8.530;2023-03-19T16:57:24;0.87;;;0.80;;
5801;SDS011;2927;49.366;8.530;2023-03-19T16:59:51;1.23;;;0.80;;
5801;SDS011;2927;49.366;8.530;2023-03-19T17:02:17;0.70;;;0.53;;
5801;SDS011;2927;49.366;8.530;2023-03-19T17:04:43;0.60;;;0.60;;
5801;SDS011;2927;49.366;8.530;2023-03-19T17:07:09;1.00;;;0.60;;
5801;SDS011;2927;49.366;8.530;2023-03-19T17:09:36;1.63;;;1.03;;
5801;SDS011;2927;49.366;8.530;2023-03-19T17:12:03;0.70;;;0.70;;
5801;SDS011;2927;49.366;8.530;2023-03-19T17:14:30;2.27;;;0.70;;
5801;SDS011;2927;49.366;8.530;2023-03-19T17:16:57;0.60;;;0.50;;